Franktown, CO (80116)

1:16 AM MDT on September 22, 2014 (GMT -0600)
Deerfield | Change Station
CLOSE
Current Station
Personal Weather Station
Location: Franktown, CO
Elevation: 6503 ft
Nearby Weather Stations

Elev 6503 ft 39.37 °N, 104.70 °W | Updated 7 minutes ago

Mostly Cloudy
Mostly Cloudy
57.2 °F
Feels Like 57.2 °F
N
8.3
Wind Variable Wind from South
Gusts 8.7 mph

Today
High -- | Low -- °F
--% Chance of Precip.
Yesterday
High -- | Low -- °F
Precip. -- in
6:46 AM 6:55 PM
Waning Crescent, 4% visible
Pressure 30.37 in
Visibility 10.0 miles
Clouds Scattered Clouds 12000 ft
Dew Point 42 °F
Humidity 56%
Rainfall 0.00 in
Snow Depth Not available.
UV 0 out of 12
Pollen 6.60 out of 12
Ozone Good
PM2.5 Unhealthy for Sensitive Groups
Flu Activity Not available.
METAR KMNH 220653Z AUTO 17020G27KT 10SM SCT120 12/03 A3037 RMK AO2

More Conditions Fewer Conditions

Pressure 30.37 in
Visibility 10.0 miles
Clouds Scattered Clouds 12000 ft
Dew Point 42 °F
Humidity 56%
Rainfall 0.00 in
Snow Depth Not available.
UV 0 out of 12
Pollen 6.60 out of 12
Ozone Good
PM2.5 Unhealthy for Sensitive Groups
Flu Activity Not available.
METAR KMNH 220653Z AUTO 17020G27KT 10SM SCT120 12/03 A3037 RMK AO2

More Conditions Fewer Conditions

Nowcast | as of 12:51 am MDT on September 22, 2014

Scattered light showers will move over the Front Range foothills then weaken as they move over the Front Range cities as far east as Weld and Elbert counties by 3 am.

×

10-Day Weather Forecast

Almanac

Astronomy

Sep. 22, 2014 Rise Set
Actual Time 6:46 AM MDT 6:55 PM MDT
Civil Twilight 6:19 AM MDT 7:22 PM MDT
Nautical Twilight 5:48 AM MDT 7:53 PM MDT
Astronomical Twilight 5:16 AM MDT 8:25 PM MDT
Moon 5:17 AM MDT 6:04 PM MDT
Length of Visible Light 13h 02m
Length of Day
12h 09m
Tomorrow will be 2m 33s shorter.
Waning Crescent, 4% of the Moon is Illuminated
Today
Waning Crescent
Sep 24
New
Oct 1
First Quarter
Oct 8
Full
Oct 15
Last Quarter

Today's Extremes

State Highs State Lows

Community

WunderPhotos

Upload Photos

1,755,392 photos uploaded!

Nearby

Air Quality

  Air Quality AQ Index Pollutant
Yesterday Moderate
OZONE
Yesterday Good
PM10
Current Unhealthy for Sensitive Groups
PM2.5
Current Good
OZONE
Sunday Good
OZONE
Sunday Good
PM2.5
Monday Moderate
PM2.5
Monday Good
OZONE

Snow Depth

Station Depth Elevation
Sharkstooth 0 in 10720 ft
Lake Irene 0 in 10700 ft
Roach 0 in 9700 ft
Spud Mountain 0 in 10660 ft
Zirkel 0 in 9340 ft

Earthquake Activity

City Distance Mag. Time & Date
No recent earthquake activity has been reported nearby.
Minimum magnitude displayed is 2.5.

Coastal Water Temperatures

Place Temperature
No Stations Reporting

Nearby Weather Stations